Aultbea, United Kingdom
Current Conditions -  °F | °C
As of 6:50 PM on Saturday 25 Oct 2014 (Local Time) from EGPO Reporting Station
Rain Showers Rain Showers  
Wind Chill: 37°   Ceiling: Unl
Heat Index: 46°   Visibility: 3mi
Dew Point: 43°   Wind: 31mph
Humidity: 87%   Direction: 250°WSW
Pressure: 29.32"   Gusts: 47mph
Location:  57.87°N, 5.63°W
Report Text: EGPO 251750Z AUTO 25027G41KT 5000 -SHRA FEW021/// SCT029/// 08/06 Q0993
Loading
Personal Weather Stations






























Interactive Weather Map
Tropical Storm Tracking
New forecast layout! Learn more

10-Day Weather Forecast

Advertisements
Track Severe Weather on mobile